Time;durP1;ratioP1;P1;durP2;ratioP2;P2;SDS_P1;SDS_P2;PMS_P1;PMS_P2;Temp;Humidity;BMP_temperature;BMP_pressure;BME280_temperature;BME280_humidity;BME280_pressure;Samples;Min_cycle;Max_cycle;Signal;HPM_P1;HPM_P2
2023/05/29 00:01:00;;;;;;;7.38;5.97;;;;;;;24.87;57.54;100854.25;5072981;28;20266;-59
2023/05/29 00:03:32;;;;;;;8.05;6.07;;;;;;;24.86;57.27;100845.28;5073013;28;20044;-59
2023/05/29 00:06:04;;;;;;;6.95;5.68;;;;;;;24.87;57.37;100854.25;5073481;28;20045;-59
2023/05/29 00:08:31;;;;;;;7.47;6.43;;;;;;;24.86;57.24;100861.53;5073053;28;20048;-59
2023/05/29 00:10:59;;;;;;;8.00;6.35;;;;;;;24.86;57.33;100861.53;5071638;28;20052;-55
2023/05/29 00:13:27;;;;;;;7.45;6.40;;;;;;;24.87;57.42;100867.78;5071325;28;20060;-53
2023/05/29 00:15:55;;;;;;;5.85;5.20;;;;;;;24.86;57.43;100871.50;5072615;28;20040;-54
2023/05/29 00:18:23;;;;;;;6.20;5.45;;;;;;;24.85;57.35;100865.25;5072574;28;20041;-55
2023/05/29 00:20:50;;;;;;;7.53;5.82;;;;;;;24.85;57.62;100873.38;5072669;28;20055;-59
2023/05/29 00:23:18;;;;;;;7.20;5.47;;;;;;;24.84;57.47;100870.84;5072854;28;20060;-59
2023/05/29 00:25:45;;;;;;;7.97;5.93;;;;;;;24.84;57.63;100874.41;5072520;28;20041;-59
2023/05/29 00:28:13;;;;;;;7.43;5.97;;;;;;;24.84;57.54;100873.56;5072535;28;20044;-59
2023/05/29 00:30:40;;;;;;;6.63;5.68;;;;;;;24.84;57.57;100879.81;5072891;28;20052;-59
2023/05/29 00:33:08;;;;;;;7.07;5.78;;;;;;;24.84;57.37;100876.25;5072740;28;20049;-59
2023/05/29 00:35:35;;;;;;;8.70;5.75;;;;;;;24.84;57.61;100881.69;5072534;28;20060;-60
2023/05/29 00:38:03;;;;;;;7.30;5.78;;;;;;;24.84;57.60;100882.53;5073058;28;20477;-59
2023/05/29 00:40:30;;;;;;;7.45;5.82;;;;;;;24.83;57.38;100879.97;5072529;28;20040;-54
2023/05/29 00:42:57;;;;;;;6.13;5.43;;;;;;;24.83;57.55;100885.38;5075052;28;20036;-53
2023/05/29 00:45:26;;;;;;;8.30;7.03;;;;;;;24.82;57.34;100879.13;5075774;28;20040;-51
2023/05/29 00:47:53;;;;;;;7.03;5.57;;;;;;;24.83;57.57;100883.53;5076326;28;20053;-51
2023/05/29 00:50:21;;;;;;;9.95;6.38;;;;;;;24.82;57.40;100887.25;5074938;28;20057;-52
2023/05/29 00:52:49;;;;;;;6.63;5.78;;;;;;;24.81;57.23;100885.56;5076704;28;20044;-52
2023/05/29 00:55:17;;;;;;;6.50;5.30;;;;;;;24.81;57.18;100885.56;5074771;28;20068;-52
2023/05/29 00:57:46;;;;;;;7.25;5.47;;;;;;;24.81;57.31;100884.72;5093196;28;20056;-51
2023/05/29 01:00:14;;;;;;;9.57;6.53;;;;;;;24.83;57.41;100893.50;5096649;28;20044;-52
2023/05/29 01:02:44;;;;;;;6.95;6.20;;;;;;;24.81;57.50;100888.25;5095662;28;20392;-52
2023/05/29 01:05:14;;;;;;;7.15;5.65;;;;;;;24.80;57.30;100883.88;5096511;28;20044;-54
2023/05/29 01:07:42;;;;;;;7.80;6.43;;;;;;;24.79;57.49;100887.56;5096554;28;20046;-54
2023/05/29 01:10:11;;;;;;;7.45;5.60;;;;;;;24.80;57.62;100885.72;5095836;28;20052;-53
2023/05/29 01:12:47;;;;;;;6.47;5.35;;;;;;;24.80;57.47;100880.31;5096363;28;20055;-53
2023/05/29 01:15:28;;;;;;;8.15;6.63;;;;;;;24.80;57.43;100886.56;5095091;28;20383;-53
2023/05/29 01:18:21;;;;;;;8.32;5.93;;;;;;;24.79;57.67;100884.84;5095577;28;20048;-52
2023/05/29 01:20:56;;;;;;;8.13;6.88;;;;;;;24.80;57.58;100886.56;5096808;28;20044;-59
2023/05/29 01:23:52;;;;;;;6.90;5.57;;;;;;;24.80;57.53;100891.16;5096293;28;20130;-59
2023/05/29 01:26:40;;;;;;;;;;;;;;;24.77;57.55;100881.50;5096634;28;20051;-59
2023/05/29 01:29:12;;;;;;;6.05;5.13;;;;;;;24.79;57.53;100878.59;5095235;28;19920;-59
2023/05/29 01:31:41;;;;;;;6.03;5.30;;;;;;;24.78;57.56;100880.47;5095174;28;20052;-59
2023/05/29 01:34:09;;;;;;;7.15;5.97;;;;;;;24.78;57.56;100877.75;5096145;28;20055;-59
2023/05/29 01:36:37;;;;;;;7.72;6.43;;;;;;;24.78;57.95;100879.63;5095136;28;20052;-59
2023/05/29 01:39:05;;;;;;;8.13;6.05;;;;;;;24.79;57.63;100878.59;5095848;28;20048;-59
2023/05/29 01:41:34;;;;;;;7.80;6.13;;;;;;;24.79;57.82;100875.91;5096029;28;20492;-51
2023/05/29 01:44:09;;;;;;;6.63;5.95;;;;;;;24.79;57.96;100878.59;5088212;28;20044;-53
2023/05/29 01:46:40;;;;;;;7.13;6.10;;;;;;;24.78;57.79;100876.91;5073702;28;20048;-53
2023/05/29 01:49:09;;;;;;;6.90;5.95;;;;;;;24.79;57.90;100875.91;5074386;28;20060;-53
2023/05/29 01:51:37;;;;;;;7.72;6.05;;;;;;;24.78;57.70;100876.91;5058237;28;20053;-59
2023/05/29 01:54:05;;;;;;;8.27;6.50;;;;;;;24.79;57.80;100884.00;5073957;28;20056;-59
2023/05/29 01:56:33;;;;;;;6.88;6.18;;;;;;;24.77;57.97;100867.94;5074386;28;20045;-59
2023/05/29 01:59:02;;;;;;;7.47;6.32;;;;;;;24.78;57.94;100869.63;5074197;28;20519;-59
2023/05/29 02:01:31;;;;;;;8.57;6.30;;;;;;;24.77;57.66;100861.69;5073923;28;20064;-59
2023/05/29 02:03:59;;;;;;;7.88;5.82;;;;;;;24.78;57.94;100872.34;5073826;28;20397;-59
2023/05/29 02:06:26;;;;;;;6.75;5.85;;;;;;;24.78;57.91;100855.25;5075553;28;20040;-59
2023/05/29 02:08:53;;;;;;;7.40;6.07;;;;;;;24.78;57.77;100857.97;5075076;28;20052;-60
2023/05/29 02:11:21;;;;;;;6.15;5.32;;;;;;;24.78;57.65;100856.09;5073919;28;20052;-59
2023/05/29 02:13:49;;;;;;;6.43;5.60;;;;;;;24.77;57.96;100854.41;5073943;28;20044;-59
2023/05/29 02:16:16;;;;;;;6.53;5.82;;;;;;;24.77;57.86;100861.69;5074255;28;20060;-60
2023/05/29 02:18:44;;;;;;;9.73;6.00;;;;;;;24.76;57.80;100863.56;5074823;28;20481;-59
2023/05/29 02:21:12;;;;;;;7.35;6.50;;;;;;;24.77;57.79;100857.13;5073369;28;20492;-53
2023/05/29 02:23:40;;;;;;;8.02;6.15;;;;;;;24.78;57.70;100856.09;5075046;28;20055;-50
2023/05/29 02:26:08;;;;;;;6.65;5.43;;;;;;;24.78;57.52;100850.69;5073428;28;20063;-54
2023/05/29 02:28:35;;;;;;;11.43;5.75;;;;;;;24.79;57.25;100844.25;5074676;28;20045;-54
2023/05/29 02:31:03;;;;;;;8.05;6.30;;;;;;;24.78;57.55;100839.00;5074584;28;20064;-53
2023/05/29 02:33:30;;;;;;;7.68;6.22;;;;;;;24.80;57.46;100839.69;5074967;28;20055;-53
2023/05/29 02:35:57;;;;;;;6.63;5.70;;;;;;;24.80;57.73;100843.25;5074322;28;20048;-53
2023/05/29 02:38:25;;;;;;;6.93;5.63;;;;;;;24.79;57.69;100835.28;5073736;28;20052;-50
2023/05/29 02:40:53;;;;;;;7.20;5.90;;;;;;;24.79;57.56;100832.56;5074518;28;20048;-59
2023/05/29 02:43:21;;;;;;;8.65;6.68;;;;;;;24.80;57.53;100828.88;5073353;28;20056;-59
2023/05/29 02:45:49;;;;;;;8.00;5.88;;;;;;;24.80;57.65;100835.13;5082632;28;20044;-59
2023/05/29 02:48:16;;;;;;;6.45;5.70;;;;;;;24.80;57.89;100831.59;5094396;28;20044;-59
2023/05/29 02:50:44;;;;;;;6.78;5.57;;;;;;;24.80;57.78;100835.13;5093477;28;20048;-59
2023/05/29 02:53:11;;;;;;;7.38;5.88;;;;;;;24.80;57.82;100839.69;5093392;28;20044;-59
2023/05/29 02:55:39;;;;;;;7.38;6.65;;;;;;;24.80;57.54;100828.88;5094649;28;20468;-60
2023/05/29 02:58:07;;;;;;;7.68;6.05;;;;;;;24.80;57.59;100831.59;5093486;28;20515;-59
2023/05/29 03:00:35;;;;;;;7.75;6.43;;;;;;;24.80;57.69;100834.28;5094532;28;20051;-53
2023/05/29 03:03:03;;;;;;;6.57;5.57;;;;;;;24.80;57.66;100845.13;5094890;28;20051;-53
2023/05/29 03:05:30;;;;;;;7.47;5.85;;;;;;;24.79;57.54;100846.94;5093472;28;20051;-50
2023/05/29 03:07:58;;;;;;;7.57;6.78;;;;;;;24.78;57.83;100839.84;5094556;28;20050;-53
2023/05/29 03:10:25;;;;;;;7.65;6.50;;;;;;;24.79;57.49;100848.81;5093897;28;20051;-52
2023/05/29 03:12:54;;;;;;;7.78;5.97;;;;;;;24.77;57.37;100846.28;5092886;28;20056;-54
2023/05/29 03:15:21;;;;;;;8.55;5.93;;;;;;;24.76;57.50;100844.59;5094125;28;20518;-51
2023/05/29 03:17:49;;;;;;;10.65;6.60;;;;;;;24.76;57.58;100836.47;5093427;28;20048;-52
2023/05/29 03:20:21;;;;;;;7.30;5.88;;;;;;;24.76;57.43;100846.47;5093040;28;20052;-53
2023/05/29 03:22:52;;;;;;;6.75;5.90;;;;;;;24.75;57.44;100851.00;5092688;28;20048;-53
2023/05/29 03:25:20;;;;;;;7.15;6.40;;;;;;;24.75;57.26;100847.47;5094012;28;20055;-50
2023/05/29 03:27:47;;;;;;;7.63;6.15;;;;;;;24.74;57.50;100854.75;5094145;28;20047;-52
2023/05/29 03:30:20;;;;;;;6.68;5.70;;;;;;;24.75;57.59;100855.59;5093225;28;20488;-59
2023/05/29 03:32:48;;;;;;;6.88;5.60;;;;;;;24.74;57.36;100854.75;5092801;28;20062;-59
2023/05/29 03:35:17;;;;;;;7.15;6.10;;;;;;;24.75;57.16;100852.88;5092361;28;20062;-59
2023/05/29 03:37:44;;;;;;;9.30;7.03;;;;;;;24.74;57.37;100851.19;5092604;28;20040;-59
2023/05/29 03:40:13;;;;;;;7.10;5.95;;;;;;;24.75;57.35;100852.88;5092955;28;20055;-53
2023/05/29 03:42:41;;;;;;;7.03;5.97;;;;;;;24.75;57.51;100855.59;5091945;28;20388;-54
2023/05/29 03:45:09;;;;;;;6.75;5.78;;;;;;;24.74;57.09;100856.59;5091428;28;20048;-53
2023/05/29 03:47:40;;;;;;;7.18;5.80;;;;;;;24.74;57.23;100860.16;5088415;28;20036;-54
2023/05/29 03:50:08;;;;;;;7.00;6.30;;;;;;;24.73;57.39;100855.75;5093230;28;20050;-59
2023/05/29 03:52:36;;;;;;;7.45;5.93;;;;;;;24.73;57.27;100872.00;5076272;28;20399;-59
2023/05/29 03:55:09;;;;;;;6.03;5.38;;;;;;;24.73;57.15;100879.28;5092025;28;20052;-59
2023/05/29 03:57:37;;;;;;;7.63;6.30;;;;;;;24.72;57.34;100872.19;5093009;28;20051;-59
2023/05/29 04:00:05;;;;;;;7.03;6.32;;;;;;;24.72;57.32;100874.88;5092814;28;20052;-52
2023/05/29 04:02:40;;;;;;;7.05;6.35;;;;;;;24.71;56.95;100875.88;5100052;28;20061;-53
2023/05/29 04:05:12;;;;;;;6.95;5.90;;;;;;;24.71;56.99;100875.88;5091904;28;20480;-52
2023/05/29 04:07:42;;;;;;;7.63;5.75;;;;;;;24.70;57.17;100869.63;5092566;28;20411;-54
2023/05/29 04:10:09;;;;;;;8.02;6.38;;;;;;;24.71;56.88;100875.88;5092084;28;20048;-59
2023/05/29 04:12:37;;;;;;;7.93;5.75;;;;;;;24.70;56.87;100880.44;5093186;28;20044;-59
2023/05/29 04:15:05;;;;;;;7.15;5.95;;;;;;;24.70;56.99;100883.16;5092086;28;20048;-59
2023/05/29 04:17:33;;;;;;;7.95;6.13;;;;;;;24.69;57.02;100881.47;5092403;28;20052;-59
2023/05/29 04:20:07;;;;;;;6.47;5.85;;;;;;;24.69;57.36;100886.88;5093130;28;20048;-59
2023/05/29 04:22:38;;;;;;;7.53;6.25;;;;;;;24.69;56.90;100886.88;5093355;28;20090;-59
2023/05/29 04:25:05;;;;;;;6.75;5.90;;;;;;;24.69;56.99;100886.88;5092811;28;20051;-59
2023/05/29 04:27:37;;;;;;;8.13;5.93;;;;;;;24.67;57.10;100889.78;5092431;28;20396;-59
2023/05/29 04:30:07;;;;;;;6.93;6.22;;;;;;;24.69;56.90;100897.72;5092187;28;20051;-59
2023/05/29 04:32:40;;;;;;;6.13;5.53;;;;;;;24.67;57.17;100905.13;5091490;28;20055;-59
2023/05/29 04:35:09;;;;;;;6.63;5.93;;;;;;;24.67;57.01;100916.84;5092551;28;20500;-59
2023/05/29 04:37:44;;;;;;;11.00;6.53;;;;;;;24.68;56.97;100914.97;5086455;28;20040;-59
2023/05/29 04:40:13;;;;;;;8.48;6.38;;;;;;;24.68;57.01;100917.69;5072775;28;20059;-52
2023/05/29 04:42:45;;;;;;;7.35;5.47;;;;;;;24.67;56.97;100924.97;5071728;28;20052;-53
2023/05/29 04:45:14;;;;;;;8.07;6.05;;;;;;;24.69;56.76;100918.53;5071929;28;20060;-59
2023/05/29 04:47:44;;;;;;;6.80;5.68;;;;;;;24.66;56.76;100920.53;5070306;28;20052;-59
2023/05/29 04:50:13;;;;;;;6.47;5.88;;;;;;;24.66;56.83;100919.69;5072243;28;20051;-59
2023/05/29 04:52:43;;;;;;;7.13;5.28;;;;;;;24.65;56.81;100926.97;5071998;28;20049;-59
2023/05/29 04:55:11;;;;;;;7.03;5.85;;;;;;;24.67;57.01;100926.78;5072575;28;20045;-59
2023/05/29 04:57:39;;;;;;;6.18;5.30;;;;;;;24.66;57.02;100919.69;5082815;28;20044;-59
2023/05/29 05:00:13;;;;;;;7.18;5.53;;;;;;;24.66;56.97;100930.53;5093268;28;20051;-50
2023/05/29 05:02:44;;;;;;;8.32;6.18;;;;;;;24.65;56.95;100921.56;5091854;28;20048;-54
2023/05/29 05:05:13;;;;;;;7.82;6.28;;;;;;;24.65;56.71;100926.13;5091594;28;20420;-54
2023/05/29 05:07:40;;;;;;;7.55;5.78;;;;;;;24.66;56.78;100933.22;5093053;28;20040;-52
2023/05/29 05:10:08;;;;;;;7.30;6.55;;;;;;;24.65;57.01;100932.38;5091189;28;20051;-59
2023/05/29 05:12:36;;;;;;;7.10;5.78;;;;;;;24.65;56.81;100924.25;5090850;28;20369;-59
2023/05/29 05:15:04;;;;;;;6.25;5.63;;;;;;;24.66;56.80;100930.53;5091668;28;20051;-59
2023/05/29 05:17:34;;;;;;;8.45;5.72;;;;;;;24.65;56.78;100929.69;5091943;28;20044;-60
2023/05/29 05:20:04;;;;;;;6.53;5.80;;;;;;;24.65;56.88;100932.38;5091220;28;20454;-54
2023/05/29 05:22:33;;;;;;;8.10;6.10;;;;;;;24.65;56.98;100936.97;5091891;28;20043;-52
2023/05/29 05:25:01;;;;;;;7.43;6.40;;;;;;;24.64;56.90;100941.53;5091399;28;20415;-54
2023/05/29 05:27:28;;;;;;;7.07;6.07;;;;;;;24.65;56.78;100939.66;5091943;28;20048;-53
2023/05/29 05:29:56;;;;;;;7.00;6.20;;;;;;;24.65;56.74;100939.66;5094867;28;20501;-58
2023/05/29 05:32:23;;;;;;;7.55;6.05;;;;;;;24.66;56.76;100946.75;5094771;28;20863;-59
2023/05/29 05:34:59;;;;;;;6.80;6.07;;;;;;;24.65;56.98;100947.78;5094724;28;20055;-59
2023/05/29 05:37:27;;;;;;;8.10;6.22;;;;;;;24.66;56.97;100946.75;5095959;28;20047;-59
2023/05/29 05:39:58;;;;;;;6.85;5.78;;;;;;;24.65;57.26;100948.63;5094584;28;20048;-53
2023/05/29 05:42:25;;;;;;;6.82;6.10;;;;;;;24.64;56.75;100944.22;5078508;28;20051;-59
2023/05/29 05:44:59;;;;;;;6.47;5.88;;;;;;;24.65;56.88;100936.97;5094689;28;20517;-59
2023/05/29 05:47:28;;;;;;;6.68;5.97;;;;;;;24.65;57.09;100951.34;5092404;28;20056;-59
2023/05/29 05:49:57;;;;;;;8.60;6.78;;;;;;;24.66;56.96;100942.19;5073453;28;20381;-57
2023/05/29 05:52:31;;;;;;;7.43;5.75;;;;;;;24.66;57.03;100949.47;5075696;28;20053;-53
2023/05/29 05:54:59;;;;;;;6.65;5.70;;;;;;;24.66;57.35;100953.03;5075460;28;20503;-52
2023/05/29 05:57:27;;;;;;;7.47;6.63;;;;;;;24.66;57.24;100947.59;5074578;28;20059;-54
2023/05/29 05:59:55;;;;;;;8.40;6.57;;;;;;;24.68;56.99;100955.59;5073929;28;20387;-53
2023/05/29 06:02:27;;;;;;;6.88;6.15;;;;;;;24.68;57.08;100955.59;5075906;28;20396;-49
2023/05/29 06:04:55;;;;;;;8.52;6.78;;;;;;;24.66;57.03;100950.31;5073939;28;20052;-52
2023/05/29 06:07:22;;;;;;;7.97;6.65;;;;;;;24.67;57.18;100949.31;5073840;28;20049;-53
2023/05/29 06:09:50;;;;;;;8.02;6.25;;;;;;;24.67;57.49;100949.31;5075849;28;20056;-53
2023/05/29 06:12:17;;;;;;;7.32;6.57;;;;;;;24.67;57.24;100957.44;5074067;28;20055;-54
2023/05/29 06:14:55;;;;;;;7.25;6.43;;;;;;;24.69;57.39;100957.28;5074027;28;20053;-54
2023/05/29 06:17:23;;;;;;;7.82;6.78;;;;;;;24.68;56.78;100952.88;5074170;28;20076;-54
2023/05/29 06:19:50;;;;;;;10.13;8.30;;;;;;;24.66;56.18;100952.19;5073707;28;20056;-54
2023/05/29 06:22:18;;;;;;;11.55;9.45;;;;;;;24.62;55.67;100951.66;5073700;28;20436;-54
2023/05/29 06:24:46;;;;;;;9.85;8.50;;;;;;;24.59;55.58;100941.19;5074180;28;20408;-54
2023/05/29 06:27:13;;;;;;;11.02;9.93;;;;;;;24.57;55.39;100945.91;5074788;28;20056;-55
2023/05/29 06:29:41;;;;;;;12.93;9.95;;;;;;;24.55;55.29;100947.94;5073714;28;20044;-54
2023/05/29 06:32:08;;;;;;;11.75;9.48;;;;;;;24.52;55.52;100947.41;5073710;28;20059;-57
2023/05/29 06:34:36;;;;;;;11.25;10.02;;;;;;;24.47;55.28;100947.03;5073961;28;20049;-57
2023/05/29 06:37:03;;;;;;;10.57;9.40;;;;;;;24.42;54.91;100945.66;5072915;28;20053;-55
2023/05/29 06:39:31;;;;;;;13.73;11.00;;;;;;;24.40;54.90;100952.25;5088294;28;20063;-56
2023/05/29 06:41:59;;;;;;;14.38;10.93;;;;;;;24.30;54.57;100955.03;5073184;28;20052;-55
2023/05/29 06:44:26;;;;;;;12.75;11.45;;;;;;;24.22;54.04;100959.56;5083889;28;20473;-55
2023/05/29 06:46:54;;;;;;;12.95;11.20;;;;;;;24.11;53.46;100961.56;5072198;28;20048;-54
2023/05/29 06:49:21;;;;;;;12.25;10.10;;;;;;;24.07;53.34;100952.06;5087433;28;20055;-51
2023/05/29 06:51:49;;;;;;;11.57;10.38;;;;;;;24.06;53.45;100953.03;5094575;28;20056;-50
2023/05/29 06:54:24;;;;;;;11.82;9.55;;;;;;;24.08;53.60;100959.16;5092951;28;20052;-57
2023/05/29 06:56:52;;;;;;;11.43;9.43;;;;;;;24.12;53.59;100952.41;5093127;28;20047;-57
2023/05/29 06:59:38;;;;;;;11.70;9.38;;;;;;;24.18;53.82;100951.78;5093023;28;20048;-57
2023/05/29 07:02:07;;;;;;;12.30;8.68;;;;;;;24.25;53.83;100953.84;5093488;28;20048;-57
2023/05/29 07:04:35;;;;;;;11.68;9.20;;;;;;;24.30;54.26;100952.34;5094254;28;20051;-58
2023/05/29 07:07:04;;;;;;;12.15;8.50;;;;;;;24.34;54.07;100953.69;5093137;28;20048;-57
2023/05/29 07:09:31;;;;;;;8.90;7.90;;;;;;;24.41;54.13;100959.34;5093121;28;20048;-57
2023/05/29 07:11:59;;;;;;;9.82;7.82;;;;;;;24.44;54.47;100948.22;5093104;28;20048;-53
2023/05/29 07:14:26;;;;;;;8.18;7.18;;;;;;;24.48;54.24;100948.75;5093185;28;20048;-51
2023/05/29 07:16:53;;;;;;;10.25;8.23;;;;;;;24.52;54.27;100955.53;5093259;28;20059;-53
2023/05/29 07:19:21;;;;;;;10.48;8.35;;;;;;;24.56;54.04;100951.47;5094220;28;20054;-52
2023/05/29 07:21:51;;;;;;;7.43;6.68;;;;;;;24.59;54.69;100945.72;5093371;28;20059;-53
2023/05/29 07:24:20;;;;;;;9.38;7.15;;;;;;;24.62;54.49;100951.66;5092567;28;20530;-53
2023/05/29 07:26:48;;;;;;;9.00;7.78;;;;;;;24.65;54.45;100948.63;5093183;28;20044;-52
2023/05/29 07:29:17;;;;;;;8.80;7.70;;;;;;;24.69;54.39;100957.28;5092784;28;20373;-53
2023/05/29 07:31:45;;;;;;;9.70;8.15;;;;;;;24.72;54.42;100953.41;5093890;28;20051;-58
2023/05/29 07:34:13;;;;;;;9.10;7.65;;;;;;;24.75;54.52;100950.34;5092866;28;20044;-58
2023/05/29 07:37:03;;;;;;;9.32;7.35;;;;;;;24.77;54.41;100951.03;5092552;28;20056;-58
2023/05/29 07:39:34;;;;;;;7.63;6.90;;;;;;;24.80;54.34;100953.44;5092945;28;20048;-58
2023/05/29 07:42:10;;;;;;;9.57;7.57;;;;;;;24.81;54.27;100945.13;5093077;28;20052;-52
2023/05/29 07:44:43;;;;;;;7.70;6.90;;;;;;;24.83;54.31;100948.53;5092563;28;20048;-50
2023/05/29 07:47:10;;;;;;;8.07;7.00;;;;;;;24.84;54.49;100943.97;5092801;28;20048;-52
2023/05/29 07:49:41;;;;;;;8.98;7.45;;;;;;;24.86;54.44;100944.63;5092609;28;20408;-52
2023/05/29 07:52:10;;;;;;;9.57;7.28;;;;;;;24.87;54.42;100943.59;5092471;28;20055;-50
2023/05/29 07:54:37;;;;;;;8.52;7.28;;;;;;;24.89;54.41;100949.72;5092541;28;20059;-50
2023/05/29 07:57:09;;;;;;;9.35;7.05;;;;;;;24.91;54.12;100950.38;5092819;28;20055;-53
2023/05/29 07:59:42;;;;;;;7.65;6.68;;;;;;;24.92;54.50;100944.81;5092528;28;20047;-51
2023/05/29 08:02:11;;;;;;;8.00;7.05;;;;;;;24.95;54.26;100953.63;5092649;28;20051;-58
2023/05/29 08:04:53;;;;;;;9.15;7.85;;;;;;;24.95;54.14;100950.91;5092919;28;20056;-58
2023/05/29 08:07:20;;;;;;;8.77;7.68;;;;;;;24.97;54.35;100952.44;5092622;28;20078;-58
2023/05/29 08:09:48;;;;;;;9.00;7.07;;;;;;;24.97;54.22;100957.84;5093369;28;20044;-58
2023/05/29 08:12:15;;;;;;;9.02;6.68;;;;;;;24.99;54.14;100960.38;5093557;28;20496;-58
2023/05/29 08:14:43;;;;;;;9.18;8.18;;;;;;;24.99;54.26;100953.09;5092193;28;20055;-58
2023/05/29 08:17:10;;;;;;;8.23;7.43;;;;;;;25.01;54.42;100956.50;5092490;28;20059;-58
2023/05/29 08:19:38;;;;;;;8.35;7.43;;;;;;;25.01;54.29;100947.53;5093312;28;20044;-58
2023/05/29 08:22:05;;;;;;;8.75;7.65;;;;;;;25.02;54.33;100950.06;5093552;28;20055;-52
2023/05/29 08:24:33;;;;;;;10.93;7.57;;;;;;;25.05;54.35;100951.63;5093270;28;20368;-52
2023/05/29 08:27:00;;;;;;;8.35;6.78;;;;;;;25.04;54.26;100956.19;5093462;28;20040;-53
2023/05/29 08:29:28;;;;;;;8.88;7.55;;;;;;;25.06;54.25;100956.84;5093118;28;20039;-52
2023/05/29 08:31:55;;;;;;;7.57;6.85;;;;;;;25.06;54.36;100953.31;5093461;28;20052;-49
2023/05/29 08:34:22;;;;;;;10.38;7.30;;;;;;;25.07;54.58;100958.53;5093109;28;20087;-54
2023/05/29 08:36:51;;;;;;;8.23;7.30;;;;;;;25.08;54.32;100959.41;5093139;28;20545;-51
2023/05/29 08:39:18;;;;;;;8.20;6.72;;;;;;;25.08;54.33;100960.25;5093035;28;20040;-53
2023/05/29 08:41:54;;;;;;;9.20;7.43;;;;;;;25.09;54.42;100964.69;5092854;28;20055;-53
2023/05/29 08:44:22;;;;;;;8.85;8.02;;;;;;;25.10;54.52;100965.53;5092846;28;20040;-53
2023/05/29 08:46:55;;;;;;;9.68;7.63;;;;;;;25.11;54.48;100965.34;5093122;28;20044;-51
2023/05/29 08:49:23;;;;;;;8.00;7.20;;;;;;;25.10;54.43;100955.53;5092871;28;20055;-53
2023/05/29 08:52:01;;;;;;;9.93;7.07;;;;;;;25.10;54.50;100955.53;5092140;28;20059;-58
2023/05/29 08:54:31;;;;;;;9.70;7.50;;;;;;;25.12;54.24;100964.38;5093192;28;20081;-58
2023/05/29 08:57:01;;;;;;;8.55;7.65;;;;;;;25.13;54.33;100966.06;5093173;28;20036;-58
2023/05/29 08:59:29;;;;;;;10.65;7.95;;;;;;;25.12;54.19;100960.81;5092916;28;20040;-58
2023/05/29 09:01:57;;;;;;;9.77;7.38;;;;;;;25.12;54.38;100955.41;5093170;28;20047;-52
2023/05/29 09:04:24;;;;;;;8.75;7.85;;;;;;;25.07;53.93;100963.97;5096478;28;20044;-50
2023/05/29 09:06:52;;;;;;;10.75;8.23;;;;;;;24.97;53.48;100960.56;5096698;28;20411;-53
2023/05/29 09:09:20;;;;;;;10.80;9.05;;;;;;;24.90;53.30;100962.25;5096498;28;20380;-52
2023/05/29 09:11:48;;;;;;;10.95;8.88;;;;;;;24.87;53.10;100955.31;5096686;28;20052;-58
2023/05/29 09:14:35;;;;;;;9.40;7.82;;;;;;;24.86;53.18;100960.88;5096596;28;20044;-58
2023/05/29 09:17:04;;;;;;;10.82;8.73;;;;;;;24.85;53.30;100961.91;5096724;28;20056;-58
2023/05/29 09:19:31;;;;;;;11.63;9.52;;;;;;;24.83;53.32;100966.63;5096408;28;20051;-58
2023/05/29 09:22:07;;;;;;;9.45;7.57;;;;;;;24.79;53.04;100963.38;5096491;28;20044;-51
2023/05/29 09:24:37;;;;;;;9.55;7.93;;;;;;;24.73;52.82;100961.34;5096256;28;20040;-51
2023/05/29 09:27:07;;;;;;;11.40;7.43;;;;;;;24.71;52.95;100967.94;5096083;28;20400;-50
2023/05/29 09:29:39;;;;;;;9.73;7.47;;;;;;;24.66;52.93;100963.84;5096047;28;20044;-50
2023/05/29 09:32:17;;;;;;;10.80;8.40;;;;;;;24.64;53.00;100965.88;5096515;28;20040;-52
2023/05/29 09:34:45;;;;;;;9.55;8.00;;;;;;;24.66;53.22;100961.16;5096310;28;20048;-52
2023/05/29 09:37:13;;;;;;;9.30;8.10;;;;;;;24.70;53.42;100961.66;5095941;28;20507;-52
2023/05/29 09:39:42;;;;;;;9.80;7.82;;;;;;;24.73;52.95;100963.22;5095234;28;20044;-54
2023/05/29 09:42:09;;;;;;;9.13;7.88;;;;;;;24.73;53.14;100969.47;5096387;28;20051;-50
2023/05/29 09:44:40;;;;;;;9.38;7.63;;;;;;;24.74;53.29;100971.16;5096026;28;20513;-53
2023/05/29 09:47:09;;;;;;;10.80;8.10;;;;;;;24.73;52.90;100966.75;5096022;28;20507;-53
2023/05/29 09:49:41;;;;;;;9.02;7.57;;;;;;;24.70;53.06;100966.25;5095903;28;20048;-53
2023/05/29 09:52:09;;;;;;;8.80;7.60;;;;;;;24.69;52.81;100967.25;5096142;28;20044;-51
2023/05/29 09:54:37;;;;;;;7.32;6.55;;;;;;;24.70;52.73;100969.78;5095932;28;20279;-53
2023/05/29 09:57:06;;;;;;;9.65;6.85;;;;;;;24.72;53.05;100962.38;5095780;28;20044;-52
2023/05/29 09:59:35;;;;;;;9.30;7.30;;;;;;;24.76;53.16;100962.88;5095622;28;20515;-53
2023/05/29 10:02:04;;;;;;;9.63;6.47;;;;;;;24.78;53.30;100966.25;5095884;28;20526;-49
2023/05/29 10:04:35;;;;;;;10.90;7.57;;;;;;;24.81;53.40;100965.94;5095550;28;20044;-50
2023/05/29 10:07:26;;;;;;;8.68;6.53;;;;;;;24.84;53.50;100966.47;5095847;28;20048;-50
2023/05/29 10:10:07;;;;;;;8.52;6.72;;;;;;;24.87;53.29;100959.84;5095104;28;20055;-51
2023/05/29 10:12:38;;;;;;;10.45;6.60;;;;;;;24.89;53.18;100958.69;5095371;28;20052;-58
2023/05/29 10:15:14;;;;;;;8.43;6.32;;;;;;;24.92;53.20;100949.41;5095029;28;20040;-58
2023/05/29 10:17:52;;;;;;;7.70;5.88;;;;;;;24.93;53.18;100945.66;5095474;28;20492;-58
2023/05/29 10:20:22;;;;;;;8.43;6.88;;;;;;;24.94;53.37;100941.94;5095224;28;20044;-51
2023/05/29 10:22:54;;;;;;;8.77;6.70;;;;;;;24.95;53.31;100951.75;5095272;28;20055;-51
2023/05/29 10:25:22;;;;;;;7.15;6.40;;;;;;;24.96;53.32;100948.03;5095049;28;20506;-49
2023/05/29 10:27:50;;;;;;;8.65;6.82;;;;;;;24.98;53.40;100940.59;5094960;28;20050;-52
2023/05/29 10:30:40;;;;;;;7.10;6.13;;;;;;;24.99;53.27;100946.84;5094822;28;20051;-57
2023/05/29 10:33:44;;;;;;;6.93;6.13;;;;;;;25.00;53.30;100943.16;5094995;28;20502;-53
2023/05/29 10:36:18;;;;;;;7.22;5.72;;;;;;;25.00;53.15;100935.88;5094728;28;20063;-53
2023/05/29 10:38:46;;;;;;;6.95;5.75;;;;;;;24.99;53.16;100939.56;5094855;28;20051;-53
2023/05/29 10:41:28;;;;;;;8.43;5.85;;;;;;;25.00;53.25;100941.28;5094697;28;20422;-53
2023/05/29 10:43:57;;;;;;;6.13;5.53;;;;;;;25.01;52.97;100932.13;5094668;28;20044;-52
2023/05/29 10:46:44;;;;;;;6.82;5.70;;;;;;;25.01;52.83;100934.84;5094612;28;20097;-52
2023/05/29 10:49:21;;;;;;;7.88;6.10;;;;;;;25.02;52.92;100930.28;5094416;28;20071;-54
2023/05/29 10:51:49;;;;;;;9.88;5.65;;;;;;;25.03;52.94;100932.81;5074072;28;20055;-53
2023/05/29 10:54:21;;;;;;;9.55;6.57;;;;;;;25.04;52.97;100930.97;5074200;28;20061;-51
2023/05/29 10:57:00;;;;;;;9.27;6.57;;;;;;;25.04;52.97;100930.97;5074212;28;20056;-51
2023/05/29 10:59:28;;;;;;;8.15;6.07;;;;;;;25.04;52.88;100922.84;5074692;28;20045;-51
2023/05/29 11:01:57;;;;;;;7.43;5.82;;;;;;;25.05;52.86;100921.81;5093198;28;20059;-53
2023/05/29 11:04:26;;;;;;;7.15;5.80;;;;;;;25.05;52.85;100927.25;5094237;28;20044;-51
2023/05/29 11:06:54;;;;;;;7.32;6.47;;;;;;;25.05;52.82;100922.66;5073088;28;20064;-53
2023/05/29 11:09:31;;;;;;;7.75;5.93;;;;;;;25.05;52.96;100919.13;5073769;28;20052;-53
2023/05/29 11:12:11;;;;;;;6.45;5.72;;;;;;;25.03;52.74;100913.84;5074079;28;20507;-57
2023/05/29 11:14:53;;;;;;;7.85;5.60;;;;;;;25.04;52.92;100922.84;5075309;28;20063;-58
2023/05/29 11:17:29;;;;;;;7.32;5.22;;;;;;;25.03;52.63;100916.56;5094310;28;20051;-58
2023/05/29 11:20:00;;;;;;;6.38;5.10;;;;;;;25.03;52.76;100916.56;5094069;28;20047;-56
2023/05/29 11:22:43;;;;;;;7.55;4.85;;;;;;;25.05;52.80;100914.53;5094279;28;20095;-53
2023/05/29 11:25:13;;;;;;;8.93;5.85;;;;;;;25.05;52.88;100900.16;5093198;28;20044;-52
2023/05/29 11:27:44;;;;;;;6.15;5.07;;;;;;;25.06;52.71;100904.53;5093971;28;20044;-50
2023/05/29 11:30:12;;;;;;;7.15;4.97;;;;;;;25.05;53.11;100911.81;5093940;28;20498;-56
2023/05/29 11:32:42;;;;;;;8.00;5.65;;;;;;;25.06;53.16;100893.72;5093966;28;20411;-52
2023/05/29 11:35:10;;;;;;;8.23;5.47;;;;;;;25.06;53.18;100904.53;5093767;28;20392;-52
2023/05/29 11:37:38;;;;;;;8.10;5.03;;;;;;;25.06;53.23;100901.84;5093467;28;20075;-51